sensor_id;sensor_type;location;lat;lon;timestamp;P1;durP1;ratioP1;P2;durP2;ratioP2
23747;SDS011;12054;53.662;10.126;2023-04-05T00:01:26;4.65;;;3.13;;
23747;SDS011;12054;53.662;10.126;2023-04-05T00:03:53;3.85;;;3.10;;
23747;SDS011;12054;53.662;10.126;2023-04-05T00:06:19;4.50;;;3.40;;
23747;SDS011;12054;53.662;10.126;2023-04-05T00:08:52;4.70;;;3.50;;
23747;SDS011;12054;53.662;10.126;2023-04-05T00:11:20;5.38;;;3.50;;
23747;SDS011;12054;53.662;10.126;2023-04-05T00:13:46;4.30;;;3.38;;
23747;SDS011;12054;53.662;10.126;2023-04-05T00:16:12;4.95;;;3.30;;
23747;SDS011;12054;53.662;10.126;2023-04-05T00:18:38;4.82;;;3.17;;
23747;SDS011;12054;53.662;10.126;2023-04-05T00:21:10;5.30;;;3.33;;
23747;SDS011;12054;53.662;10.126;2023-04-05T00:23:38;5.93;;;3.05;;
23747;SDS011;12054;53.662;10.126;2023-04-05T00:26:05;6.97;;;3.40;;
23747;SDS011;12054;53.662;10.126;2023-04-05T00:28:31;5.28;;;3.20;;
23747;SDS011;12054;53.662;10.126;2023-04-05T00:30:56;4.00;;;2.60;;
23747;SDS011;12054;53.662;10.126;2023-04-05T00:33:22;6.22;;;3.47;;
23747;SDS011;12054;53.662;10.126;2023-04-05T00:35:47;5.22;;;3.80;;
23747;SDS011;12054;53.662;10.126;2023-04-05T00:38:13;6.22;;;3.50;;
23747;SDS011;12054;53.662;10.126;2023-04-05T00:40:38;6.65;;;3.72;;
23747;SDS011;12054;53.662;10.126;2023-04-05T00:43:04;5.50;;;4.10;;
23747;SDS011;12054;53.662;10.126;2023-04-05T00:45:29;4.43;;;3.28;;
23747;SDS011;12054;53.662;10.126;2023-04-05T00:47:55;6.32;;;3.22;;
23747;SDS011;12054;53.662;10.126;2023-04-05T00:50:20;5.72;;;3.30;;
23747;SDS011;12054;53.662;10.126;2023-04-05T00:52:47;6.05;;;3.20;;
23747;SDS011;12054;53.662;10.126;2023-04-05T00:55:14;8.07;;;3.35;;
23747;SDS011;12054;53.662;10.126;2023-04-05T00:57:41;5.78;;;3.25;;
23747;SDS011;12054;53.662;10.126;2023-04-05T01:00:09;6.05;;;3.10;;
23747;SDS011;12054;53.662;10.126;2023-04-05T01:02:39;4.80;;;3.20;;
23747;SDS011;12054;53.662;10.126;2023-04-05T01:05:13;4.40;;;2.85;;
23747;SDS011;12054;53.662;10.126;2023-04-05T01:07:47;4.70;;;2.80;;
23747;SDS011;12054;53.662;10.126;2023-04-05T01:10:17;6.30;;;3.10;;
23747;SDS011;12054;53.662;10.126;2023-04-05T01:12:46;4.88;;;3.40;;
23747;SDS011;12054;53.662;10.126;2023-04-05T01:15:12;4.55;;;2.92;;
23747;SDS011;12054;53.662;10.126;2023-04-05T01:17:38;5.78;;;2.83;;
23747;SDS011;12054;53.662;10.126;2023-04-05T01:20:07;5.40;;;3.20;;
23747;SDS011;12054;53.662;10.126;2023-04-05T01:25:24;4.75;;;3.17;;
23747;SDS011;12054;53.662;10.126;2023-04-05T01:31:19;5.18;;;3.42;;
23747;SDS011;12054;53.662;10.126;2023-04-05T01:34:01;5.47;;;3.50;;
23747;SDS011;12054;53.662;10.126;2023-04-05T01:37:00;5.20;;;3.83;;
23747;SDS011;12054;53.662;10.126;2023-04-05T01:39:29;6.47;;;4.00;;
23747;SDS011;12054;53.662;10.126;2023-04-05T01:41:59;4.95;;;3.53;;
23747;SDS011;12054;53.662;10.126;2023-04-05T01:44:25;7.65;;;3.38;;
23747;SDS011;12054;53.662;10.126;2023-04-05T01:46:51;3.30;;;2.90;;
23747;SDS011;12054;53.662;10.126;2023-04-05T01:49:17;5.78;;;3.17;;
23747;SDS011;12054;53.662;10.126;2023-04-05T01:51:42;4.35;;;2.90;;
23747;SDS011;12054;53.662;10.126;2023-04-05T01:54:08;5.32;;;2.83;;
23747;SDS011;12054;53.662;10.126;2023-04-05T01:56:34;4.65;;;2.78;;
23747;SDS011;12054;53.662;10.126;2023-04-05T01:58:59;3.92;;;2.47;;
23747;SDS011;12054;53.662;10.126;2023-04-05T02:01:25;4.80;;;2.80;;
23747;SDS011;12054;53.662;10.126;2023-04-05T02:03:50;3.85;;;2.70;;
23747;SDS011;12054;53.662;10.126;2023-04-05T02:06:16;4.63;;;2.53;;
23747;SDS011;12054;53.662;10.126;2023-04-05T02:08:41;5.30;;;2.78;;
23747;SDS011;12054;53.662;10.126;2023-04-05T02:11:07;3.20;;;2.58;;
23747;SDS011;12054;53.662;10.126;2023-04-05T02:13:32;5.18;;;2.97;;
23747;SDS011;12054;53.662;10.126;2023-04-05T02:15:58;6.15;;;2.78;;
23747;SDS011;12054;53.662;10.126;2023-04-05T02:18:23;3.50;;;2.70;;
23747;SDS011;12054;53.662;10.126;2023-04-05T02:20:59;5.90;;;2.85;;
23747;SDS011;12054;53.662;10.126;2023-04-05T02:23:29;5.03;;;2.75;;
23747;SDS011;12054;53.662;10.126;2023-04-05T02:25:55;4.15;;;2.90;;
23747;SDS011;12054;53.662;10.126;2023-04-05T02:28:21;5.22;;;2.85;;
23747;SDS011;12054;53.662;10.126;2023-04-05T02:30:47;5.63;;;3.10;;
23747;SDS011;12054;53.662;10.126;2023-04-05T02:33:12;4.65;;;3.10;;
23747;SDS011;12054;53.662;10.126;2023-04-05T02:35:37;6.00;;;3.00;;
23747;SDS011;12054;53.662;10.126;2023-04-05T02:38:03;4.53;;;3.20;;
23747;SDS011;12054;53.662;10.126;2023-04-05T02:40:29;5.47;;;3.13;;
23747;SDS011;12054;53.662;10.126;2023-04-05T02:42:55;4.85;;;3.40;;
23747;SDS011;12054;53.662;10.126;2023-04-05T02:45:20;4.72;;;2.97;;
23747;SDS011;12054;53.662;10.126;2023-04-05T02:47:46;6.82;;;3.00;;
23747;SDS011;12054;53.662;10.126;2023-04-05T02:50:11;6.40;;;3.33;;
23747;SDS011;12054;53.662;10.126;2023-04-05T02:52:37;4.13;;;3.20;;
23747;SDS011;12054;53.662;10.126;2023-04-05T02:55:06;5.57;;;3.55;;
23747;SDS011;12054;53.662;10.126;2023-04-05T02:57:31;6.65;;;3.28;;
23747;SDS011;12054;53.662;10.126;2023-04-05T02:59:57;5.10;;;3.20;;
23747;SDS011;12054;53.662;10.126;2023-04-05T03:02:23;4.95;;;3.33;;
23747;SDS011;12054;53.662;10.126;2023-04-05T03:04:50;5.88;;;3.63;;
23747;SDS011;12054;53.662;10.126;2023-04-05T03:07:17;6.63;;;3.80;;
23747;SDS011;12054;53.662;10.126;2023-04-05T03:09:43;7.03;;;3.08;;
23747;SDS011;12054;53.662;10.126;2023-04-05T03:12:10;8.25;;;3.92;;
23747;SDS011;12054;53.662;10.126;2023-04-05T03:14:36;4.88;;;3.47;;
23747;SDS011;12054;53.662;10.126;2023-04-05T03:17:02;6.10;;;3.42;;
23747;SDS011;12054;53.662;10.126;2023-04-05T03:19:28;4.25;;;3.40;;
23747;SDS011;12054;53.662;10.126;2023-04-05T03:21:53;5.95;;;3.70;;
23747;SDS011;12054;53.662;10.126;2023-04-05T03:24:19;5.70;;;3.40;;
23747;SDS011;12054;53.662;10.126;2023-04-05T03:26:45;6.53;;;3.78;;
23747;SDS011;12054;53.662;10.126;2023-04-05T03:29:11;5.65;;;3.70;;
23747;SDS011;12054;53.662;10.126;2023-04-05T03:31:36;5.38;;;3.30;;
23747;SDS011;12054;53.662;10.126;2023-04-05T03:34:02;6.18;;;3.80;;
23747;SDS011;12054;53.662;10.126;2023-04-05T03:36:28;5.40;;;3.58;;
23747;SDS011;12054;53.662;10.126;2023-04-05T03:39:13;4.30;;;3.20;;
23747;SDS011;12054;53.662;10.126;2023-04-05T03:41:39;5.47;;;3.40;;
23747;SDS011;12054;53.662;10.126;2023-04-05T03:44:05;5.82;;;3.30;;
23747;SDS011;12054;53.662;10.126;2023-04-05T03:46:32;5.80;;;3.28;;
23747;SDS011;12054;53.662;10.126;2023-04-05T03:48:58;4.38;;;3.13;;
23747;SDS011;12054;53.662;10.126;2023-04-05T03:51:25;5.88;;;3.83;;
23747;SDS011;12054;53.662;10.126;2023-04-05T03:53:51;5.32;;;3.55;;
23747;SDS011;12054;53.662;10.126;2023-04-05T03:56:16;5.90;;;3.75;;
23747;SDS011;12054;53.662;10.126;2023-04-05T03:58:42;6.80;;;3.30;;
23747;SDS011;12054;53.662;10.126;2023-04-05T04:01:08;6.00;;;3.75;;
23747;SDS011;12054;53.662;10.126;2023-04-05T04:03:34;6.05;;;3.40;;
23747;SDS011;12054;53.662;10.126;2023-04-05T04:06:01;6.03;;;3.90;;
23747;SDS011;12054;53.662;10.126;2023-04-05T04:08:30;6.00;;;3.75;;
23747;SDS011;12054;53.662;10.126;2023-04-05T04:10:56;6.82;;;4.00;;
23747;SDS011;12054;53.662;10.126;2023-04-05T04:13:22;6.72;;;3.90;;
23747;SDS011;12054;53.662;10.126;2023-04-05T04:15:47;5.53;;;3.35;;
23747;SDS011;12054;53.662;10.126;2023-04-05T04:18:13;6.95;;;4.07;;
23747;SDS011;12054;53.662;10.126;2023-04-05T04:20:38;7.75;;;4.10;;
23747;SDS011;12054;53.662;10.126;2023-04-05T04:23:04;5.40;;;3.42;;
23747;SDS011;12054;53.662;10.126;2023-04-05T04:25:30;5.38;;;3.13;;
23747;SDS011;12054;53.662;10.126;2023-04-05T04:27:56;6.20;;;3.72;;
23747;SDS011;12054;53.662;10.126;2023-04-05T04:30:22;5.55;;;4.00;;
23747;SDS011;12054;53.662;10.126;2023-04-05T04:32:49;4.93;;;3.22;;
23747;SDS011;12054;53.662;10.126;2023-04-05T04:35:28;5.95;;;3.35;;
23747;SDS011;12054;53.662;10.126;2023-04-05T04:38:02;7.38;;;3.10;;
23747;SDS011;12054;53.662;10.126;2023-04-05T04:43:05;5.57;;;3.30;;
23747;SDS011;12054;53.662;10.126;2023-04-05T04:45:38;6.43;;;3.58;;
23747;SDS011;12054;53.662;10.126;2023-04-05T04:48:04;5.45;;;3.65;;
23747;SDS011;12054;53.662;10.126;2023-04-05T04:50:30;4.65;;;3.22;;
23747;SDS011;12054;53.662;10.126;2023-04-05T04:52:57;5.63;;;3.08;;
23747;SDS011;12054;53.662;10.126;2023-04-05T04:55:23;4.90;;;3.22;;
23747;SDS011;12054;53.662;10.126;2023-04-05T04:57:52;7.35;;;3.65;;
23747;SDS011;12054;53.662;10.126;2023-04-05T05:00:19;6.03;;;3.63;;
23747;SDS011;12054;53.662;10.126;2023-04-05T05:02:45;6.50;;;3.53;;
23747;SDS011;12054;53.662;10.126;2023-04-05T05:05:11;5.72;;;3.63;;
23747;SDS011;12054;53.662;10.126;2023-04-05T05:07:38;5.90;;;3.83;;
23747;SDS011;12054;53.662;10.126;2023-04-05T05:10:06;5.22;;;3.75;;
23747;SDS011;12054;53.662;10.126;2023-04-05T05:12:32;5.38;;;3.53;;
23747;SDS011;12054;53.662;10.126;2023-04-05T05:14:58;4.40;;;3.25;;
23747;SDS011;12054;53.662;10.126;2023-04-05T05:17:23;5.63;;;3.53;;
23747;SDS011;12054;53.662;10.126;2023-04-05T05:19:49;6.30;;;3.63;;
23747;SDS011;12054;53.662;10.126;2023-04-05T05:22:15;5.97;;;3.67;;
23747;SDS011;12054;53.662;10.126;2023-04-05T05:24:42;9.50;;;4.78;;
23747;SDS011;12054;53.662;10.126;2023-04-05T05:27:08;6.97;;;4.45;;
23747;SDS011;12054;53.662;10.126;2023-04-05T05:29:33;6.97;;;4.45;;
23747;SDS011;12054;53.662;10.126;2023-04-05T05:31:59;9.18;;;4.18;;
23747;SDS011;12054;53.662;10.126;2023-04-05T05:34:25;7.05;;;4.47;;
23747;SDS011;12054;53.662;10.126;2023-04-05T05:36:50;7.38;;;4.30;;
23747;SDS011;12054;53.662;10.126;2023-04-05T05:39:17;6.32;;;4.10;;
23747;SDS011;12054;53.662;10.126;2023-04-05T05:41:43;8.95;;;4.97;;
23747;SDS011;12054;53.662;10.126;2023-04-05T05:44:09;6.70;;;4.38;;
23747;SDS011;12054;53.662;10.126;2023-04-05T05:46:34;7.82;;;4.40;;
23747;SDS011;12054;53.662;10.126;2023-04-05T05:49:00;5.57;;;4.20;;
23747;SDS011;12054;53.662;10.126;2023-04-05T05:51:25;10.27;;;4.90;;
23747;SDS011;12054;53.662;10.126;2023-04-05T05:53:51;7.78;;;4.60;;
23747;SDS011;12054;53.662;10.126;2023-04-05T05:56:16;7.00;;;4.93;;
23747;SDS011;12054;53.662;10.126;2023-04-05T05:58:42;7.45;;;4.50;;
23747;SDS011;12054;53.662;10.126;2023-04-05T06:01:07;9.90;;;4.45;;
23747;SDS011;12054;53.662;10.126;2023-04-05T06:03:36;8.80;;;4.47;;
23747;SDS011;12054;53.662;10.126;2023-04-05T06:06:02;12.63;;;6.30;;
23747;SDS011;12054;53.662;10.126;2023-04-05T06:08:30;7.60;;;4.95;;
23747;SDS011;12054;53.662;10.126;2023-04-05T06:10:56;8.70;;;4.63;;
23747;SDS011;12054;53.662;10.126;2023-04-05T06:13:22;6.72;;;4.72;;
23747;SDS011;12054;53.662;10.126;2023-04-05T06:15:48;9.90;;;5.20;;
23747;SDS011;12054;53.662;10.126;2023-04-05T06:18:14;12.15;;;5.03;;
23747;SDS011;12054;53.662;10.126;2023-04-05T06:20:40;8.57;;;4.93;;
23747;SDS011;12054;53.662;10.126;2023-04-05T06:23:08;10.30;;;5.03;;
23747;SDS011;12054;53.662;10.126;2023-04-05T06:25:34;8.20;;;4.57;;
23747;SDS011;12054;53.662;10.126;2023-04-05T06:28:01;8.48;;;5.10;;
23747;SDS011;12054;53.662;10.126;2023-04-05T06:30:28;8.38;;;4.82;;
23747;SDS011;12054;53.662;10.126;2023-04-05T06:32:53;11.57;;;4.47;;
23747;SDS011;12054;53.662;10.126;2023-04-05T06:35:20;12.45;;;4.60;;
23747;SDS011;12054;53.662;10.126;2023-04-05T06:37:46;8.82;;;4.43;;
23747;SDS011;12054;53.662;10.126;2023-04-05T06:40:12;10.90;;;4.47;;
23747;SDS011;12054;53.662;10.126;2023-04-05T06:42:37;9.32;;;4.28;;
23747;SDS011;12054;53.662;10.126;2023-04-05T06:45:03;6.70;;;4.30;;
23747;SDS011;12054;53.662;10.126;2023-04-05T06:47:33;7.75;;;4.40;;
23747;SDS011;12054;53.662;10.126;2023-04-05T06:49:59;6.65;;;4.07;;
23747;SDS011;12054;53.662;10.126;2023-04-05T06:52:25;7.78;;;3.70;;
23747;SDS011;12054;53.662;10.126;2023-04-05T06:54:50;9.35;;;3.97;;
23747;SDS011;12054;53.662;10.126;2023-04-05T06:57:17;9.63;;;3.95;;
23747;SDS011;12054;53.662;10.126;2023-04-05T06:59:42;8.02;;;3.95;;
23747;SDS011;12054;53.662;10.126;2023-04-05T07:02:08;6.13;;;3.38;;
23747;SDS011;12054;53.662;10.126;2023-04-05T07:04:33;5.45;;;3.10;;
23747;SDS011;12054;53.662;10.126;2023-04-05T07:07:01;8.30;;;3.75;;
23747;SDS011;12054;53.662;10.126;2023-04-05T07:09:28;7.10;;;3.45;;
23747;SDS011;12054;53.662;10.126;2023-04-05T07:11:56;6.07;;;3.22;;
23747;SDS011;12054;53.662;10.126;2023-04-05T07:14:22;4.28;;;3.13;;
23747;SDS011;12054;53.662;10.126;2023-04-05T07:16:48;9.23;;;3.15;;
23747;SDS011;12054;53.662;10.126;2023-04-05T07:19:13;5.30;;;3.08;;
23747;SDS011;12054;53.662;10.126;2023-04-05T07:21:39;6.53;;;3.20;;
23747;SDS011;12054;53.662;10.126;2023-04-05T07:24:04;6.38;;;3.00;;
23747;SDS011;12054;53.662;10.126;2023-04-05T07:26:30;4.43;;;2.90;;
23747;SDS011;12054;53.662;10.126;2023-04-05T07:28:59;6.28;;;2.85;;
23747;SDS011;12054;53.662;10.126;2023-04-05T07:31:26;4.63;;;2.95;;
23747;SDS011;12054;53.662;10.126;2023-04-05T07:33:51;6.15;;;3.00;;
23747;SDS011;12054;53.662;10.126;2023-04-05T07:36:17;5.35;;;2.75;;
23747;SDS011;12054;53.662;10.126;2023-04-05T07:38:43;5.90;;;2.70;;
23747;SDS011;12054;53.662;10.126;2023-04-05T07:41:08;5.53;;;2.45;;
23747;SDS011;12054;53.662;10.126;2023-04-05T07:43:35;4.93;;;2.58;;
23747;SDS011;12054;53.662;10.126;2023-04-05T07:46:01;5.18;;;2.70;;
23747;SDS011;12054;53.662;10.126;2023-04-05T07:48:27;5.07;;;2.60;;
23747;SDS011;12054;53.662;10.126;2023-04-05T07:50:53;6.53;;;2.65;;
23747;SDS011;12054;53.662;10.126;2023-04-05T07:53:19;6.63;;;2.72;;
23747;SDS011;12054;53.662;10.126;2023-04-05T07:55:44;5.88;;;2.40;;
23747;SDS011;12054;53.662;10.126;2023-04-05T07:58:10;5.07;;;2.63;;
23747;SDS011;12054;53.662;10.126;2023-04-05T08:00:36;6.13;;;3.20;;
23747;SDS011;12054;53.662;10.126;2023-04-05T08:03:01;5.53;;;2.70;;
23747;SDS011;12054;53.662;10.126;2023-04-05T08:05:28;6.00;;;3.00;;
23747;SDS011;12054;53.662;10.126;2023-04-05T08:07:54;4.57;;;2.50;;
23747;SDS011;12054;53.662;10.126;2023-04-05T08:10:21;6.63;;;2.85;;
23747;SDS011;12054;53.662;10.126;2023-04-05T08:12:47;4.25;;;2.90;;
23747;SDS011;12054;53.662;10.126;2023-04-05T08:15:13;7.97;;;2.92;;
23747;SDS011;12054;53.662;10.126;2023-04-05T08:17:39;5.93;;;2.75;;
23747;SDS011;12054;53.662;10.126;2023-04-05T08:20:05;6.80;;;3.38;;
23747;SDS011;12054;53.662;10.126;2023-04-05T08:22:31;5.45;;;3.40;;
23747;SDS011;12054;53.662;10.126;2023-04-05T08:24:57;4.70;;;2.90;;
23747;SDS011;12054;53.662;10.126;2023-04-05T08:27:22;7.22;;;3.38;;
23747;SDS011;12054;53.662;10.126;2023-04-05T08:29:48;5.15;;;3.42;;
23747;SDS011;12054;53.662;10.126;2023-04-05T08:32:14;8.20;;;3.50;;
23747;SDS011;12054;53.662;10.126;2023-04-05T08:34:39;7.50;;;3.47;;
23747;SDS011;12054;53.662;10.126;2023-04-05T08:37:05;5.82;;;3.13;;
23747;SDS011;12054;53.662;10.126;2023-04-05T08:39:30;6.32;;;3.60;;
23747;SDS011;12054;53.662;10.126;2023-04-05T08:41:59;5.25;;;3.38;;
23747;SDS011;12054;53.662;10.126;2023-04-05T08:44:31;6.03;;;3.47;;
23747;SDS011;12054;53.662;10.126;2023-04-05T08:47:00;6.55;;;3.50;;
23747;SDS011;12054;53.662;10.126;2023-04-05T08:49:25;5.13;;;3.42;;
23747;SDS011;12054;53.662;10.126;2023-04-05T08:51:52;5.30;;;3.75;;
23747;SDS011;12054;53.662;10.126;2023-04-05T08:54:18;5.22;;;3.17;;
23747;SDS011;12054;53.662;10.126;2023-04-05T08:56:45;4.95;;;3.15;;
23747;SDS011;12054;53.662;10.126;2023-04-05T08:59:14;4.10;;;3.38;;
23747;SDS011;12054;53.662;10.126;2023-04-05T09:01:42;5.30;;;3.67;;
23747;SDS011;12054;53.662;10.126;2023-04-05T09:04:10;5.07;;;3.53;;
23747;SDS011;12054;53.662;10.126;2023-04-05T09:06:39;5.18;;;3.63;;
23747;SDS011;12054;53.662;10.126;2023-04-05T09:09:05;6.25;;;3.50;;
23747;SDS011;12054;53.662;10.126;2023-04-05T09:11:32;5.97;;;3.60;;
23747;SDS011;12054;53.662;10.126;2023-04-05T09:14:01;7.15;;;3.83;;
23747;SDS011;12054;53.662;10.126;2023-04-05T09:16:31;4.65;;;3.22;;
23747;SDS011;12054;53.662;10.126;2023-04-05T09:19:00;4.93;;;3.38;;
23747;SDS011;12054;53.662;10.126;2023-04-05T09:21:26;5.18;;;3.60;;
23747;SDS011;12054;53.662;10.126;2023-04-05T09:23:53;6.10;;;3.63;;
23747;SDS011;12054;53.662;10.126;2023-04-05T09:26:20;6.13;;;3.78;;
23747;SDS011;12054;53.662;10.126;2023-04-05T09:28:47;7.22;;;4.15;;
23747;SDS011;12054;53.662;10.126;2023-04-05T09:31:29;7.35;;;3.60;;
23747;SDS011;12054;53.662;10.126;2023-04-05T09:34:02;5.55;;;3.85;;
23747;SDS011;12054;53.662;10.126;2023-04-05T09:36:29;6.25;;;3.67;;
23747;SDS011;12054;53.662;10.126;2023-04-05T09:39:04;5.88;;;3.60;;
23747;SDS011;12054;53.662;10.126;2023-04-05T09:41:31;6.47;;;3.53;;
23747;SDS011;12054;53.662;10.126;2023-04-05T09:43:57;6.40;;;4.10;;
23747;SDS011;12054;53.662;10.126;2023-04-05T09:46:41;8.52;;;4.22;;
23747;SDS011;12054;53.662;10.126;2023-04-05T09:49:07;5.82;;;3.80;;
23747;SDS011;12054;53.662;10.126;2023-04-05T09:51:37;7.63;;;4.32;;
23747;SDS011;12054;53.662;10.126;2023-04-05T09:54:07;7.47;;;3.95;;
23747;SDS011;12054;53.662;10.126;2023-04-05T09:56:34;6.03;;;3.75;;
23747;SDS011;12054;53.662;10.126;2023-04-05T09:59:02;5.43;;;3.50;;
23747;SDS011;12054;53.662;10.126;2023-04-05T10:01:34;6.13;;;3.65;;
23747;SDS011;12054;53.662;10.126;2023-04-05T10:04:01;8.02;;;3.97;;
23747;SDS011;12054;53.662;10.126;2023-04-05T10:06:40;8.23;;;3.67;;
23747;SDS011;12054;53.662;10.126;2023-04-05T10:09:07;6.60;;;4.00;;
23747;SDS011;12054;53.662;10.126;2023-04-05T10:11:34;7.50;;;3.33;;
23747;SDS011;12054;53.662;10.126;2023-04-05T10:14:01;4.70;;;3.13;;
23747;SDS011;12054;53.662;10.126;2023-04-05T10:16:29;6.47;;;3.88;;
23747;SDS011;12054;53.662;10.126;2023-04-05T10:18:57;7.80;;;3.92;;
23747;SDS011;12054;53.662;10.126;2023-04-05T10:21:28;4.90;;;3.72;;
23747;SDS011;12054;53.662;10.126;2023-04-05T10:26:52;6.75;;;4.25;;
23747;SDS011;12054;53.662;10.126;2023-04-05T10:29:24;6.20;;;3.65;;
23747;SDS011;12054;53.662;10.126;2023-04-05T10:32:08;5.50;;;4.00;;
23747;SDS011;12054;53.662;10.126;2023-04-05T10:34:44;7.03;;;3.95;;
23747;SDS011;12054;53.662;10.126;2023-04-05T10:37:35;6.32;;;3.83;;
23747;SDS011;12054;53.662;10.126;2023-04-05T10:40:20;8.15;;;3.97;;
23747;SDS011;12054;53.662;10.126;2023-04-05T10:42:46;6.35;;;3.72;;
23747;SDS011;12054;53.662;10.126;2023-04-05T10:45:13;6.47;;;3.85;;
23747;SDS011;12054;53.662;10.126;2023-04-05T10:47:53;6.63;;;3.80;;
23747;SDS011;12054;53.662;10.126;2023-04-05T10:50:26;5.32;;;3.35;;
23747;SDS011;12054;53.662;10.126;2023-04-05T10:52:51;7.35;;;3.75;;
23747;SDS011;12054;53.662;10.126;2023-04-05T10:55:17;7.38;;;3.33;;
23747;SDS011;12054;53.662;10.126;2023-04-05T10:57:44;5.68;;;3.10;;
23747;SDS011;12054;53.662;10.126;2023-04-05T11:00:10;7.50;;;3.33;;
23747;SDS011;12054;53.662;10.126;2023-04-05T11:02:38;4.85;;;3.13;;
23747;SDS011;12054;53.662;10.126;2023-04-05T11:05:03;4.93;;;3.30;;
23747;SDS011;12054;53.662;10.126;2023-04-05T11:07:42;6.05;;;3.30;;
23747;SDS011;12054;53.662;10.126;2023-04-05T11:10:15;6.43;;;3.88;;
23747;SDS011;12054;53.662;10.126;2023-04-05T11:20:25;4.85;;;2.80;;
23747;SDS011;12054;53.662;10.126;2023-04-05T11:22:54;4.68;;;3.10;;
23747;SDS011;12054;53.662;10.126;2023-04-05T11:25:23;4.88;;;2.80;;
23747;SDS011;12054;53.662;10.126;2023-04-05T11:27:58;5.95;;;2.70;;
23747;SDS011;12054;53.662;10.126;2023-04-05T11:36:01;3.80;;;2.60;;
23747;SDS011;12054;53.662;10.126;2023-04-05T11:38:27;4.20;;;2.33;;
23747;SDS011;12054;53.662;10.126;2023-04-05T11:41:12;4.63;;;2.58;;
23747;SDS011;12054;53.662;10.126;2023-04-05T11:43:44;3.03;;;2.20;;
23747;SDS011;12054;53.662;10.126;2023-04-05T11:46:16;4.07;;;1.92;;
23747;SDS011;12054;53.662;10.126;2023-04-05T11:48:42;3.38;;;1.85;;
23747;SDS011;12054;53.662;10.126;2023-04-05T11:51:13;3.42;;;1.92;;
23747;SDS011;12054;53.662;10.126;2023-04-05T11:53:44;4.82;;;2.47;;
23747;SDS011;12054;53.662;10.126;2023-04-05T11:56:11;5.55;;;2.70;;
23747;SDS011;12054;53.662;10.126;2023-04-05T11:58:40;3.65;;;2.50;;
23747;SDS011;12054;53.662;10.126;2023-04-05T12:01:06;6.05;;;2.75;;
23747;SDS011;12054;53.662;10.126;2023-04-05T12:03:33;4.68;;;2.60;;
23747;SDS011;12054;53.662;10.126;2023-04-05T12:06:02;5.10;;;2.42;;
23747;SDS011;12054;53.662;10.126;2023-04-05T12:11:09;3.88;;;2.38;;
23747;SDS011;12054;53.662;10.126;2023-04-05T12:13:36;3.53;;;2.50;;
23747;SDS011;12054;53.662;10.126;2023-04-05T12:16:03;5.03;;;2.60;;
23747;SDS011;12054;53.662;10.126;2023-04-05T12:18:33;5.00;;;2.47;;
23747;SDS011;12054;53.662;10.126;2023-04-05T12:21:04;2.65;;;2.20;;
23747;SDS011;12054;53.662;10.126;2023-04-05T12:23:31;4.45;;;2.45;;
23747;SDS011;12054;53.662;10.126;2023-04-05T12:25:57;4.90;;;2.50;;
23747;SDS011;12054;53.662;10.126;2023-04-05T12:28:23;6.22;;;2.60;;
23747;SDS011;12054;53.662;10.126;2023-04-05T12:30:49;4.82;;;3.10;;
23747;SDS011;12054;53.662;10.126;2023-04-05T12:33:25;5.20;;;3.30;;
23747;SDS011;12054;53.662;10.126;2023-04-05T12:35:52;5.03;;;3.30;;
23747;SDS011;12054;53.662;10.126;2023-04-05T12:38:18;4.95;;;3.10;;
23747;SDS011;12054;53.662;10.126;2023-04-05T12:40:43;6.15;;;3.63;;
23747;SDS011;12054;53.662;10.126;2023-04-05T12:43:09;6.90;;;3.72;;
23747;SDS011;12054;53.662;10.126;2023-04-05T12:45:35;5.35;;;3.33;;
23747;SDS011;12054;53.662;10.126;2023-04-05T12:48:09;5.28;;;3.00;;
23747;SDS011;12054;53.662;10.126;2023-04-05T12:50:40;6.72;;;3.35;;
23747;SDS011;12054;53.662;10.126;2023-04-05T12:53:18;5.72;;;3.42;;
23747;SDS011;12054;53.662;10.126;2023-04-05T12:55:52;5.72;;;2.88;;
23747;SDS011;12054;53.662;10.126;2023-04-05T12:58:19;4.15;;;3.03;;
23747;SDS011;12054;53.662;10.126;2023-04-05T13:00:47;4.68;;;3.10;;
23747;SDS011;12054;53.662;10.126;2023-04-05T13:03:16;4.32;;;3.00;;
23747;SDS011;12054;53.662;10.126;2023-04-05T13:05:44;5.55;;;3.22;;
23747;SDS011;12054;53.662;10.126;2023-04-05T13:08:12;4.65;;;3.00;;
23747;SDS011;12054;53.662;10.126;2023-04-05T13:10:37;5.90;;;3.28;;
23747;SDS011;12054;53.662;10.126;2023-04-05T13:13:03;5.45;;;3.22;;
23747;SDS011;12054;53.662;10.126;2023-04-05T13:15:28;7.40;;;3.47;;
23747;SDS011;12054;53.662;10.126;2023-04-05T13:17:53;3.45;;;3.00;;
23747;SDS011;12054;53.662;10.126;2023-04-05T13:20:20;4.15;;;2.95;;
23747;SDS011;12054;53.662;10.126;2023-04-05T13:22:45;4.25;;;2.90;;
23747;SDS011;12054;53.662;10.126;2023-04-05T13:25:11;4.55;;;2.83;;
23747;SDS011;12054;53.662;10.126;2023-04-05T13:27:37;4.07;;;2.97;;
23747;SDS011;12054;53.662;10.126;2023-04-05T13:30:03;4.00;;;2.58;;
23747;SDS011;12054;53.662;10.126;2023-04-05T13:32:29;2.90;;;2.20;;
23747;SDS011;12054;53.662;10.126;2023-04-05T13:34:54;3.08;;;2.45;;
23747;SDS011;12054;53.662;10.126;2023-04-05T13:37:20;4.28;;;3.00;;
23747;SDS011;12054;53.662;10.126;2023-04-05T13:39:45;6.90;;;2.78;;
23747;SDS011;12054;53.662;10.126;2023-04-05T13:42:11;4.85;;;2.90;;
23747;SDS011;12054;53.662;10.126;2023-04-05T13:44:36;5.35;;;2.90;;
23747;SDS011;12054;53.662;10.126;2023-04-05T13:47:02;8.45;;;2.95;;
23747;SDS011;12054;53.662;10.126;2023-04-05T13:49:28;5.60;;;3.10;;
23747;SDS011;12054;53.662;10.126;2023-04-05T13:51:53;4.88;;;3.03;;
23747;SDS011;12054;53.662;10.126;2023-04-05T13:54:19;5.88;;;3.30;;
23747;SDS011;12054;53.662;10.126;2023-04-05T13:56:44;5.53;;;3.30;;
23747;SDS011;12054;53.662;10.126;2023-04-05T13:59:10;4.53;;;3.22;;
23747;SDS011;12054;53.662;10.126;2023-04-05T14:01:40;5.75;;;3.30;;
23747;SDS011;12054;53.662;10.126;2023-04-05T14:04:06;5.18;;;2.80;;
23747;SDS011;12054;53.662;10.126;2023-04-05T14:06:32;4.70;;;2.95;;
23747;SDS011;12054;53.662;10.126;2023-04-05T14:08:57;3.15;;;2.58;;
23747;SDS011;12054;53.662;10.126;2023-04-05T14:11:23;5.43;;;2.80;;
23747;SDS011;12054;53.662;10.126;2023-04-05T14:13:48;4.03;;;2.95;;
23747;SDS011;12054;53.662;10.126;2023-04-05T14:16:15;3.13;;;2.40;;
23747;SDS011;12054;53.662;10.126;2023-04-05T14:18:40;4.35;;;2.85;;
23747;SDS011;12054;53.662;10.126;2023-04-05T14:21:06;5.13;;;2.85;;
23747;SDS011;12054;53.662;10.126;2023-04-05T14:23:32;4.05;;;2.90;;
23747;SDS011;12054;53.662;10.126;2023-04-05T14:25:57;3.70;;;2.60;;
23747;SDS011;12054;53.662;10.126;2023-04-05T14:28:23;6.90;;;3.08;;
23747;SDS011;12054;53.662;10.126;2023-04-05T14:30:48;6.32;;;2.47;;
23747;SDS011;12054;53.662;10.126;2023-04-05T14:33:14;4.20;;;2.50;;
23747;SDS011;12054;53.662;10.126;2023-04-05T14:35:40;2.65;;;2.30;;
23747;SDS011;12054;53.662;10.126;2023-04-05T14:38:06;5.50;;;2.33;;
23747;SDS011;12054;53.662;10.126;2023-04-05T14:40:32;4.97;;;3.00;;
23747;SDS011;12054;53.662;10.126;2023-04-05T14:42:57;5.63;;;3.15;;
23747;SDS011;12054;53.662;10.126;2023-04-05T14:45:23;4.53;;;2.90;;
23747;SDS011;12054;53.662;10.126;2023-04-05T14:47:51;3.75;;;2.75;;
23747;SDS011;12054;53.662;10.126;2023-04-05T14:50:16;4.45;;;3.08;;
23747;SDS011;12054;53.662;10.126;2023-04-05T14:52:42;3.35;;;2.60;;
23747;SDS011;12054;53.662;10.126;2023-04-05T14:55:09;4.10;;;2.53;;
23747;SDS011;12054;53.662;10.126;2023-04-05T14:57:37;4.13;;;2.58;;
23747;SDS011;12054;53.662;10.126;2023-04-05T15:00:06;4.55;;;2.45;;
23747;SDS011;12054;53.662;10.126;2023-04-05T15:02:33;4.10;;;2.10;;